Time;durP1;ratioP1;P1;durP2;ratioP2;P2;SDS_P1;SDS_P2;PMS_P1;PMS_P2;Temp;Humidity;BMP_temperature;BMP_pressure;BME280_temperature;BME280_humidity;BME280_pressure;Samples;Min_cycle;Max_cycle;Signal;HPM_P1;HPM_P2
2022/09/25 00:01:11;;;;;;;153.35;42.25;;;12.50;99.90;;;11.50;100.00;96965.06;5033881;28;20942;-72
2022/09/25 00:03:39;;;;;;;108.45;33.88;;;12.50;99.90;;;11.45;100.00;96965.03;5033250;28;20418;-73
2022/09/25 00:06:08;;;;;;;121.57;36.03;;;12.40;99.90;;;11.48;100.00;96967.16;5033695;28;20486;-73
2022/09/25 00:08:35;;;;;;;180.20;40.47;;;12.40;99.90;;;11.51;100.00;96975.38;5033732;28;20409;-72
2022/09/25 00:11:06;;;;;;;159.50;42.50;;;12.40;99.90;;;11.54;100.00;96964.25;5033597;28;20399;-73
2022/09/25 00:13:32;;;;;;;151.35;41.90;;;12.50;99.90;;;11.47;100.00;96968.22;5033045;28;20414;-72
2022/09/25 00:15:58;;;;;;;124.80;35.97;;;12.40;99.90;;;11.37;100.00;96973.50;5033212;28;20415;-72
2022/09/25 00:21:14;;;;;;;96.43;31.75;;;12.30;99.90;;;11.37;100.00;96970.88;5033615;28;20448;-71
2022/09/25 00:23:45;;;;;;;148.27;38.20;;;12.30;99.90;;;11.41;100.00;96964.00;5032848;28;20465;-72
2022/09/25 00:26:12;;;;;;;151.97;38.50;;;12.40;99.90;;;11.40;100.00;96955.25;5033369;28;20952;-73
2022/09/25 00:28:39;;;;;;;163.30;38.85;;;12.40;99.90;;;11.39;100.00;96961.59;5033321;28;20443;-73
2022/09/25 00:31:07;;;;;;;167.68;41.67;;;12.40;99.90;;;11.38;100.00;96965.31;5033270;28;20395;-73
2022/09/25 00:33:34;;;;;;;192.67;39.87;;;12.40;99.90;;;11.32;100.00;96963.72;5032769;28;20482;-73
2022/09/25 00:36:03;;;;;;;169.00;37.45;;;12.30;99.90;;;11.32;100.00;96961.06;5033123;28;20469;-73
2022/09/25 00:38:31;;;;;;;140.63;36.50;;;12.30;99.90;;;11.35;100.00;96957.88;5033004;28;20415;-73
2022/09/25 00:40:58;;;;;;;192.40;40.00;;;12.30;99.90;;;11.35;100.00;96954.47;5033061;28;20399;-73
2022/09/25 00:43:37;;;;;;;223.15;41.40;;;12.30;99.90;;;11.33;100.00;96952.06;5032592;28;20430;-73
2022/09/25 00:46:10;;;;;;;188.40;40.45;;;12.30;99.90;;;11.34;100.00;96948.38;5032900;28;20752;-73
2022/09/25 00:48:41;;;;;;;173.07;41.33;;;12.30;99.90;;;11.33;100.00;96944.13;5032923;28;20400;-73
2022/09/25 00:51:07;;;;;;;185.60;40.25;;;12.30;99.90;;;11.33;100.00;96933.53;5015217;28;20418;-75
2022/09/25 00:53:39;;;;;;;214.07;46.47;;;12.30;99.90;;;11.34;100.00;96932.47;5032297;28;20498;-74
2022/09/25 00:56:08;;;;;;;185.43;40.30;;;12.30;99.90;;;11.28;100.00;96936.16;5032733;28;20785;-73
2022/09/25 00:58:36;;;;;;;171.90;40.45;;;12.30;99.90;;;11.28;100.00;96927.44;5032158;28;20419;-73
2022/09/25 01:01:02;;;;;;;205.40;46.33;;;12.20;99.90;;;11.27;100.00;96924.00;5032678;28;20399;-73
2022/09/25 01:03:28;;;;;;;204.43;43.70;;;12.30;99.90;;;11.25;100.00;96923.47;5032181;28;20408;-73
2022/09/25 01:05:57;;;;;;;156.85;39.90;;;12.20;99.90;;;11.28;100.00;96922.13;5031200;28;20411;-73
2022/09/25 01:08:26;;;;;;;244.50;49.03;;;12.20;99.90;;;11.32;100.00;96917.88;5031271;28;20403;-74
2022/09/25 01:10:54;;;;;;;239.75;46.60;;;12.30;99.90;;;11.31;100.00;96914.44;5032133;28;20411;-73
2022/09/25 01:13:20;;;;;;;210.63;42.80;;;12.30;99.90;;;11.29;100.00;96915.75;5032054;28;21021;-73
2022/09/25 01:15:55;;;;;;;203.48;42.30;;;12.30;99.90;;;11.27;100.00;96923.19;5032260;28;20453;-74
2022/09/25 01:18:39;;;;;;;204.60;43.58;;;12.20;99.90;;;11.25;100.00;96921.59;5032413;28;20460;-74
2022/09/25 01:21:16;;;;;;;178.27;41.40;;;12.20;99.90;;;11.24;100.00;96920.00;5031939;28;20433;-74
2022/09/25 01:24:29;;;;;;;188.82;40.45;;;12.20;99.90;;;11.26;100.00;96919.75;5031820;28;20403;-73
2022/09/25 01:27:23;;;;;;;187.20;40.28;;;12.20;99.90;;;11.28;100.00;96922.91;5032130;28;20406;-74
2022/09/25 01:29:57;;;;;;;164.77;38.97;;;12.30;99.90;;;11.31;100.00;96924.25;5032193;28;20403;-73
2022/09/25 01:32:32;;;;;;;131.88;37.17;;;12.30;99.90;;;11.35;100.00;96923.44;5032113;28;20405;-74
2022/09/25 01:35:03;;;;;;;176.65;41.00;;;12.30;99.90;;;11.39;100.00;96929.00;5031721;28;20509;-73
2022/09/25 01:37:38;;;;;;;197.45;42.22;;;12.30;99.90;;;11.41;100.00;96929.53;5031963;28;20434;-74
2022/09/25 01:40:12;;;;;;;187.65;42.75;;;12.40;99.90;;;11.42;100.00;96936.44;5031940;28;20510;-73
2022/09/25 01:42:43;;;;;;;182.48;43.58;;;12.30;99.90;;;11.41;100.00;96927.69;5031833;28;20517;-73
2022/09/25 01:45:19;;;;;;;170.93;44.57;;;12.30;99.90;;;11.39;100.00;96932.44;5031775;28;20915;-73
2022/09/25 01:47:49;;;;;;;141.90;37.75;;;12.30;99.90;;;11.36;100.00;96935.63;5031725;28;20456;-73
2022/09/25 01:50:23;;;;;;;147.65;38.25;;;12.30;99.90;;;11.36;100.00;96932.19;5031753;28;20893;-74
2022/09/25 01:52:54;;;;;;;147.65;35.58;;;12.30;99.90;;;11.38;100.00;96935.34;5031123;28;20399;-74
2022/09/25 01:55:30;;;;;;;146.75;33.33;;;12.30;99.90;;;11.41;100.00;96933.00;5031681;28;20399;-74
2022/09/25 01:58:06;;;;;;;141.45;35.40;;;12.30;99.90;;;11.43;100.00;96930.84;5031618;28;20403;-74
2022/09/25 02:00:38;;;;;;;154.82;38.38;;;12.40;99.90;;;11.46;100.00;96934.81;5031589;28;20403;-74
2022/09/25 02:03:10;;;;;;;162.38;35.40;;;12.40;99.90;;;11.47;100.00;96929.25;5031020;28;20442;-74
2022/09/25 02:05:42;;;;;;;144.38;36.45;;;12.40;99.90;;;11.48;100.00;96930.06;5031301;28;20395;-74
2022/09/25 02:08:13;;;;;;;152.68;36.25;;;12.40;99.90;;;11.47;100.00;96923.97;5031480;28;20399;-74
2022/09/25 02:10:45;;;;;;;152.35;35.40;;;12.40;99.90;;;11.48;100.00;96922.09;5030524;28;20857;-74
2022/09/25 02:13:16;;;;;;;144.07;35.47;;;12.40;99.90;;;11.47;100.00;96926.63;5030872;28;20410;-74
2022/09/25 02:15:48;;;;;;;143.65;33.50;;;12.40;99.90;;;11.46;100.00;96919.72;5031160;28;20406;-74
2022/09/25 02:21:12;;;;;;;189.07;43.23;;;12.40;99.90;;;11.50;100.00;96925.28;5031288;28;20720;-73
2022/09/25 02:23:49;;;;;;;194.80;44.55;;;12.40;99.90;;;11.51;100.00;96929.50;5030680;28;20403;-73
2022/09/25 02:26:23;;;;;;;209.32;45.72;;;12.40;99.90;;;11.48;100.00;96932.72;5030995;28;20407;-73
2022/09/25 02:28:52;;;;;;;190.70;41.30;;;12.40;99.90;;;11.48;100.00;96924.75;5029855;28;20757;-73
2022/09/25 02:31:25;;;;;;;182.63;39.17;;;12.40;99.90;;;11.48;100.00;96922.91;5031076;28;20399;-73
2022/09/25 02:33:51;;;;;;;147.38;36.95;;;12.40;99.90;;;11.52;100.00;96916.00;5030484;28;20402;-73
2022/09/25 02:36:19;;;;;;;179.13;40.60;;;12.40;99.90;;;11.57;100.00;96923.16;5030774;28;20411;-73
2022/09/25 02:38:48;;;;;;;201.05;41.92;;;12.50;99.90;;;11.58;100.00;96920.22;5029492;28;20774;-73
2022/09/25 02:41:30;;;;;;;172.38;37.90;;;12.50;99.90;;;11.58;100.00;96912.25;5030776;28;20411;-73
2022/09/25 02:44:10;;;;;;;174.35;38.28;;;12.50;99.90;;;11.58;100.00;96916.75;5030367;28;20403;-74
2022/09/25 02:46:48;;;;;;;174.00;37.40;;;12.50;99.90;;;11.56;100.00;96914.41;5030842;28;20403;-73
2022/09/25 02:49:23;;;;;;;165.73;38.15;;;12.50;99.90;;;11.55;100.00;96912.03;5030679;28;20489;-74
2022/09/25 02:51:56;;;;;;;155.48;36.78;;;12.50;99.90;;;11.52;100.00;96916.00;5030652;28;20399;-73
2022/09/25 02:54:29;;;;;;;186.43;39.30;;;12.50;99.90;;;11.51;100.00;96914.41;5030109;28;20401;-73
2022/09/25 02:57:03;;;;;;;164.68;38.70;;;12.50;99.90;;;11.51;100.00;96914.41;5030590;28;20422;-73
2022/09/25 02:59:36;;;;;;;186.77;41.20;;;12.50;99.90;;;11.50;100.00;96917.34;5030450;28;20500;-73
2022/09/25 03:02:03;;;;;;;178.60;38.90;;;12.40;99.90;;;11.48;100.00;96920.25;5030657;28;20551;-73
2022/09/25 03:04:33;;;;;;;194.55;39.88;;;12.40;99.90;;;11.47;100.00;96908.06;5029952;28;20460;-73
2022/09/25 03:07:01;;;;;;;172.90;38.50;;;12.40;99.90;;;11.46;100.00;96909.13;5030451;28;20415;-73
2022/09/25 03:09:31;;;;;;;173.63;39.00;;;12.40;99.90;;;11.47;100.00;96904.63;5030500;28;20408;-73
2022/09/25 03:11:57;;;;;;;204.73;46.27;;;12.40;99.90;;;11.48;100.00;96904.34;5030431;28;20395;-74
2022/09/25 03:14:22;;;;;;;196.18;40.83;;;12.40;99.90;;;11.46;100.00;96911.78;5029958;28;20406;-73
2022/09/25 03:16:51;;;;;;;221.30;43.58;;;12.40;99.90;;;11.46;100.00;96911.78;5050390;22;20433;-76
2022/09/25 03:19:18;;;;;;;224.52;47.17;;;12.40;99.90;;;11.46;100.00;96909.13;5049694;28;20933;-76
2022/09/25 03:21:45;;;;;;;190.43;41.00;;;12.40;99.90;;;11.44;100.00;96924.47;5048900;28;20409;-77
2022/09/25 03:24:10;;;;;;;208.43;44.30;;;12.40;99.90;;;11.43;100.00;96920.25;5049741;28;20440;-76
2022/09/25 03:26:36;;;;;;;190.65;41.15;;;12.40;99.90;;;11.43;100.00;96917.59;5044252;28;20501;-76
2022/09/25 03:29:03;;;;;;;171.18;40.30;;;12.30;99.90;;;11.45;100.00;96920.78;5030234;28;20402;-77
2022/09/25 03:31:29;;;;;;;169.00;39.22;;;12.40;99.90;;;11.50;100.00;96927.94;5030197;28;20414;-77
2022/09/25 03:33:56;;;;;;;179.35;41.65;;;12.40;99.90;;;11.53;100.00;96930.03;5029589;28;20778;-76
2022/09/25 03:36:26;;;;;;;186.05;40.78;;;12.40;99.90;;;11.53;100.00;96920.22;5030017;28;20414;-76
2022/09/25 03:38:57;;;;;;;183.52;39.47;;;12.40;99.90;;;11.53;100.00;96917.59;5030050;28;20948;-75
2022/09/25 03:41:26;;;;;;;197.73;40.97;;;12.40;99.90;;;11.55;100.00;96920.78;5030171;28;20395;-76
2022/09/25 03:43:52;;;;;;;179.57;39.97;;;12.50;99.90;;;11.55;100.00;96919.97;5029589;28;20438;-76
2022/09/25 03:46:21;;;;;;;195.45;40.80;;;12.50;99.90;;;11.56;100.00;96913.63;5030116;28;20403;-76
2022/09/25 03:48:47;;;;;;;190.20;41.17;;;12.50;99.90;;;11.56;100.00;96913.63;5029977;28;20403;-76
2022/09/25 03:51:13;;;;;;;178.00;40.10;;;12.50;99.90;;;11.56;100.00;96906.47;5029990;28;20469;-76
2022/09/25 03:53:41;;;;;;;149.57;36.47;;;12.50;99.90;;;11.56;100.00;96906.47;5029450;28;20418;-78
2022/09/25 03:56:10;;;;;;;167.30;36.45;;;12.50;99.90;;;11.55;100.00;96906.72;5029941;28;20408;-76
2022/09/25 03:58:37;;;;;;;172.35;36.90;;;12.50;99.90;;;11.54;100.00;96897.97;5029887;28;20414;-76
2022/09/25 04:01:04;;;;;;;190.52;42.75;;;12.50;99.90;;;11.52;100.00;96900.09;5029939;28;20489;-77
2022/09/25 04:03:32;;;;;;;177.80;39.90;;;12.50;99.90;;;11.50;100.00;96904.09;5029349;28;20410;-76
2022/09/25 04:06:03;;;;;;;186.33;40.13;;;12.40;99.90;;;11.46;100.00;96903.03;5029833;28;20406;-76
2022/09/25 04:08:30;;;;;;;168.90;38.35;;;12.40;99.90;;;11.45;100.00;96893.47;5029948;28;20406;-76
2022/09/25 04:10:59;;;;;;;182.27;40.15;;;12.40;99.90;;;11.43;100.00;96899.03;5029940;28;20489;-76
2022/09/25 04:13:28;;;;;;;182.73;41.00;;;12.40;99.90;;;11.42;100.00;96900.13;5029347;28;20402;-76
2022/09/25 04:15:55;;;;;;;185.60;40.00;;;12.40;99.90;;;11.41;100.00;96897.75;5029823;28;20896;-75
2022/09/25 04:18:21;;;;;;;162.20;37.10;;;12.30;99.90;;;11.41;100.00;96908.34;5029583;28;20817;-75
2022/09/25 04:20:47;;;;;;;186.93;38.40;;;12.30;99.90;;;11.43;100.00;96904.34;5029787;28;20411;-76
2022/09/25 04:23:13;;;;;;;170.65;37.13;;;12.40;99.90;;;11.46;100.00;96913.63;5029353;28;20408;-75
2022/09/25 04:25:39;;;;;;;175.45;38.00;;;12.40;99.90;;;11.46;100.00;96909.13;5028512;28;20415;-75
2022/09/25 04:28:06;;;;;;;159.98;37.30;;;12.40;99.90;;;11.48;100.00;96914.16;5029653;28;20418;-76
2022/09/25 04:30:33;;;;;;;201.15;44.60;;;12.40;99.90;;;11.46;100.00;96909.13;5029642;28;20414;-75
2022/09/25 04:35:44;;;;;;;168.30;37.75;;;12.40;99.90;;;11.47;100.00;96910.72;5033271;28;20449;-76
2022/09/25 04:38:10;;;;;;;146.52;35.58;;;12.40;99.90;;;11.49;100.00;96913.09;5031798;28;20418;-75
2022/09/25 04:40:36;;;;;;;134.07;34.20;;;12.40;99.90;;;11.52;100.00;96918.63;5033029;28;20422;-76
2022/09/25 04:43:06;;;;;;;127.68;33.25;;;12.40;99.90;;;11.54;100.00;96913.88;5032564;28;20410;-75
2022/09/25 04:45:34;;;;;;;190.45;41.85;;;12.40;99.90;;;11.55;100.00;96915.47;5032932;28;20427;-76
2022/09/25 04:48:00;;;;;;;171.55;39.95;;;12.50;99.90;;;11.53;100.00;96908.84;5032730;28;20781;-76
2022/09/25 04:50:28;;;;;;;151.95;34.72;;;12.50;99.90;;;11.52;100.00;96910.69;5032911;28;20485;-75
2022/09/25 04:52:56;;;;;;;150.27;34.83;;;12.40;99.90;;;11.52;100.00;96913.34;5032325;28;20911;-75
2022/09/25 04:55:23;;;;;;;157.60;34.93;;;12.40;99.90;;;11.53;100.00;96903.53;5032889;28;20414;-76
2022/09/25 04:57:49;;;;;;;158.63;35.25;;;12.40;99.90;;;11.54;100.00;96905.91;5032725;28;20450;-77
2022/09/25 05:00:18;;;;;;;161.73;36.90;;;12.50;99.90;;;11.56;100.00;96905.66;5032667;28;20423;-76
2022/09/25 05:02:44;;;;;;;154.27;35.25;;;12.50;99.90;;;11.55;100.00;96906.72;5032310;28;20548;-76
2022/09/25 05:05:10;;;;;;;160.15;37.33;;;12.50;99.90;;;11.53;100.00;96909.63;5032538;28;20445;-75
2022/09/25 05:07:37;;;;;;;145.40;35.42;;;12.50;99.90;;;11.53;100.00;96906.97;5032532;28;20407;-76
2022/09/25 05:10:04;;;;;;;137.80;34.22;;;12.50;99.90;;;11.53;100.00;96901.69;5032619;28;20489;-76
2022/09/25 05:12:30;;;;;;;171.77;39.35;;;12.40;99.90;;;11.54;100.00;96905.13;5032392;28;20449;-76
2022/09/25 05:14:56;;;;;;;162.50;38.97;;;12.50;99.90;;;11.52;100.00;96907.25;5032200;28;20404;-76
2022/09/25 05:17:23;;;;;;;163.80;37.50;;;12.40;99.90;;;11.48;100.00;96914.94;5032255;28;20425;-76
2022/09/25 05:19:49;;;;;;;181.93;43.75;;;12.40;99.90;;;11.47;100.00;96915.22;5032349;28;20819;-77
2022/09/25 05:22:15;;;;;;;179.07;42.45;;;12.40;99.90;;;11.45;100.00;96912.81;5032386;28;20399;-76
2022/09/25 05:24:41;;;;;;;147.07;38.28;;;12.40;99.90;;;11.46;100.00;96916.28;5032014;28;20443;-76
2022/09/25 05:27:07;;;;;;;142.05;38.17;;;12.40;99.90;;;11.45;100.00;96917.34;5032182;28;20399;-76
2022/09/25 05:29:33;;;;;;;203.63;43.93;;;12.40;99.90;;;11.45;100.00;96912.81;5030885;28;20443;-76
2022/09/25 05:31:59;;;;;;;197.93;44.13;;;12.40;99.90;;;11.44;100.00;96924.47;5032111;28;20839;-76
2022/09/25 05:34:26;;;;;;;151.88;40.17;;;12.40;99.90;;;11.45;100.00;96922.63;5031667;28;20403;-76
2022/09/25 05:36:52;;;;;;;205.70;47.45;;;12.40;99.90;;;11.44;100.00;96913.88;5032053;28;20403;-76
2022/09/25 05:39:18;;;;;;;202.75;45.65;;;12.40;99.90;;;11.41;100.00;96917.09;5031967;28;20429;-76
2022/09/25 05:41:44;;;;;;;176.10;42.30;;;12.30;99.90;;;11.41;100.00;96921.59;5032058;28;20649;-76
2022/09/25 05:44:10;;;;;;;207.30;45.47;;;12.40;99.90;;;11.40;100.00;96915.50;5031473;28;20407;-75
2022/09/25 05:46:36;;;;;;;167.25;41.30;;;12.40;99.90;;;11.41;100.00;96925.03;5031770;28;20903;-76
2022/09/25 05:49:03;;;;;;;169.98;42.42;;;12.30;99.90;;;11.44;100.00;96923.69;5031927;28;20399;-75
2022/09/25 05:51:30;;;;;;;170.95;40.95;;;12.30;99.90;;;11.45;100.00;96920.78;5031925;28;20407;-76
2022/09/25 05:53:56;;;;;;;181.70;42.72;;;12.30;99.90;;;11.46;100.00;96919.72;5031204;28;20455;-75
2022/09/25 05:56:25;;;;;;;188.02;42.97;;;12.40;99.90;;;11.49;100.00;96921.84;5031572;28;20426;-75
2022/09/25 05:58:51;;;;;;;169.98;40.50;;;12.40;99.90;;;11.52;100.00;96915.19;5031622;28;20425;-75
2022/09/25 06:01:18;;;;;;;158.73;40.38;;;12.40;99.90;;;11.57;100.00;96929.25;5031653;28;20407;-76
2022/09/25 06:03:44;;;;;;;142.85;38.83;;;12.50;99.90;;;11.63;100.00;96922.88;5021545;28;20409;-76
2022/09/25 06:06:10;;;;;;;145.95;37.70;;;12.50;99.90;;;11.63;100.00;96927.38;5011096;28;20463;-75
2022/09/25 06:08:38;;;;;;;148.43;37.25;;;12.50;99.90;;;11.65;100.00;96928.69;5011722;28;20405;-76
2022/09/25 06:11:06;;;;;;;155.25;37.72;;;12.50;99.90;;;11.68;100.00;96926.56;5026841;28;20447;-76
2022/09/25 06:13:35;;;;;;;170.80;40.42;;;12.60;99.90;;;11.69;100.00;96922.84;5030124;28;20777;-75
2022/09/25 06:16:01;;;;;;;143.98;37.42;;;12.60;99.90;;;11.73;100.00;96924.69;5028093;28;20765;-75
2022/09/25 06:18:27;;;;;;;138.33;36.73;;;12.60;99.90;;;11.76;100.00;96918.88;5030448;28;20414;-75
2022/09/25 06:21:00;;;;;;;179.95;40.38;;;12.60;99.90;;;11.74;100.00;96920.19;5029919;28;20409;-75
2022/09/25 06:23:26;;;;;;;148.55;36.90;;;12.60;99.90;;;11.75;100.00;96922.59;5029095;28;20407;-75
2022/09/25 06:25:54;;;;;;;197.13;43.88;;;12.60;99.90;;;11.76;100.00;96918.88;5030188;28;20413;-75
2022/09/25 06:28:20;;;;;;;147.47;37.63;;;12.70;99.90;;;11.78;100.00;96918.63;5030290;28;20511;-76
2022/09/25 06:30:46;;;;;;;146.25;37.50;;;12.70;99.90;;;11.78;100.00;96923.94;5030512;28;20892;-75
2022/09/25 06:33:13;;;;;;;189.13;42.17;;;12.70;99.90;;;11.81;100.00;96920.72;5029576;28;20954;-75
2022/09/25 06:35:42;;;;;;;155.13;38.20;;;12.70;99.90;;;11.83;100.00;96923.91;5030374;28;20464;-76
2022/09/25 06:38:08;;;;;;;156.80;37.97;;;12.70;99.90;;;11.83;100.00;96922.03;5030340;28;20407;-76
2022/09/25 06:40:36;;;;;;;141.35;36.55;;;12.70;99.90;;;11.87;100.00;96927.63;5030207;28;20422;-76
2022/09/25 06:43:05;;;;;;;146.75;37.35;;;12.80;99.90;;;11.87;100.00;96919.66;5029884;28;20457;-76
2022/09/25 06:45:33;;;;;;;192.75;43.75;;;12.80;99.90;;;11.84;100.00;96921.00;5030158;28;20400;-76
2022/09/25 06:48:01;;;;;;;157.88;37.35;;;12.80;99.90;;;11.83;100.00;96919.41;5030148;28;20399;-76
2022/09/25 06:50:33;;;;;;;158.43;39.00;;;12.70;99.90;;;11.84;100.00;96926.28;5030592;28;20395;-76
2022/09/25 06:52:59;;;;;;;152.52;38.78;;;12.70;99.90;;;11.82;100.00;96925.75;5030096;28;20738;-76
2022/09/25 06:55:25;;;;;;;129.90;37.55;;;12.70;99.90;;;11.74;100.00;96923.66;5029856;28;20403;-76
2022/09/25 06:57:51;;;;;;;142.00;37.17;;;12.60;99.90;;;11.69;100.00;96922.84;5029797;28;20414;-76
2022/09/25 07:00:19;;;;;;;130.63;33.83;;;12.60;99.90;;;11.74;100.00;96926.31;5030401;28;20443;-75
2022/09/25 07:05:29;;;;;;;83.43;28.17;;;12.60;99.90;;;11.86;100.00;96928.69;5029942;28;20447;-77
2022/09/25 07:07:55;;;;;;;130.20;32.28;;;12.70;99.90;;;11.89;100.00;96941.38;5028863;28;20497;-76
2022/09/25 07:10:21;;;;;;;125.53;33.08;;;12.80;99.90;;;11.93;100.00;96937.16;5021749;28;20468;-79
2022/09/25 07:12:47;;;;;;;115.88;32.55;;;12.80;99.90;;;11.98;100.00;96931.81;5029487;28;20407;-80
2022/09/25 07:15:14;;;;;;;96.90;28.27;;;12.90;99.90;;;12.00;100.00;96938.44;5029405;28;20453;-76
2022/09/25 07:17:42;;;;;;;100.22;27.98;;;12.90;99.90;;;11.98;100.00;96935.25;5011198;28;20418;-76
2022/09/25 07:20:11;;;;;;;96.03;28.83;;;12.90;99.90;;;12.02;100.00;96938.19;5042299;28;20463;-76
2022/09/25 07:22:37;;;;;;;120.03;29.63;;;12.90;99.90;;;12.03;100.00;96931.78;5024976;28;20412;-83
2022/09/25 07:25:04;;;;;;;89.68;26.27;;;12.90;99.90;;;12.06;100.00;96933.91;5027924;28;20897;-82
2022/09/25 07:27:30;;;;;;;94.88;27.52;;;12.90;99.90;;;12.12;100.00;96932.81;5029973;28;20410;-78
2022/09/25 07:29:56;;;;;;;117.68;32.08;;;13.00;99.90;;;12.08;100.00;96931.78;5022030;28;20715;-76
2022/09/25 07:32:22;;;;;;;122.50;31.10;;;13.00;99.90;;;12.10;100.00;96932.31;5025821;28;20409;-74
2022/09/25 07:34:50;;;;;;;122.00;30.33;;;13.00;99.90;;;12.07;100.00;96930.19;5016092;28;20404;-76
2022/09/25 07:37:15;;;;;;;90.70;27.13;;;13.00;99.90;;;12.10;100.00;96926.22;5025643;28;20411;-74
2022/09/25 07:39:42;;;;;;;94.78;28.27;;;12.90;99.90;;;12.03;100.00;96935.22;5029641;28;20792;-73
2022/09/25 07:42:08;;;;;;;79.03;27.17;;;12.90;99.90;;;12.16;100.00;96941.03;5017960;28;20813;-73
2022/09/25 07:44:34;;;;;;;67.38;23.60;;;13.00;99.90;;;12.13;100.00;96930.97;5025682;28;20816;-73
2022/09/25 07:47:02;;;;;;;73.63;24.37;;;13.00;99.90;;;12.16;100.00;96935.72;5026381;28;20482;-73
2022/09/25 07:49:28;;;;;;;68.53;25.07;;;13.00;99.90;;;12.24;100.00;96938.63;5023801;28;20478;-72
2022/09/25 07:51:55;;;;;;;83.90;24.70;;;13.10;99.90;;;12.23;100.00;96938.88;5029591;28;20426;-73
2022/09/25 07:54:22;;;;;;;80.05;24.00;;;13.10;99.90;;;12.27;100.00;96937.25;5029351;28;20461;-76
2022/09/25 07:56:48;;;;;;;56.70;22.15;;;13.10;99.90;;;12.34;100.00;96941.22;5023615;28;20403;-76
2022/09/25 07:59:14;;;;;;;69.88;23.90;;;13.20;99.90;;;12.39;100.00;96941.22;5029725;28;20469;-76
2022/09/25 08:01:40;;;;;;;64.60;23.63;;;13.20;99.90;;;12.22;100.00;96938.09;5017144;28;20405;-76
2022/09/25 08:04:06;;;;;;;79.85;24.45;;;13.10;99.90;;;12.21;100.00;96939.16;5028506;28;20847;-76
2022/09/25 08:06:34;;;;;;;59.22;21.83;;;13.10;99.90;;;12.29;100.00;96940.44;5012460;28;20409;-76
2022/09/25 08:09:01;;;;;;;64.38;22.90;;;13.10;99.90;;;12.41;100.00;96939.06;5032597;28;20889;-75
2022/09/25 08:11:28;;;;;;;50.35;20.10;;;13.20;99.90;;;12.41;100.00;96943.56;5030698;28;20422;-76
2022/09/25 08:13:54;;;;;;;59.25;21.63;;;13.20;99.90;;;12.38;100.00;96944.13;5031840;28;20406;-76
2022/09/25 08:16:22;;;;;;;58.28;22.58;;;13.20;99.90;;;12.38;100.00;96944.13;5030971;28;20425;-76
2022/09/25 08:18:48;;;;;;;72.83;24.17;;;13.20;99.90;;;12.36;100.00;96946.25;5028853;28;20418;-75
2022/09/25 08:21:17;;;;;;;41.63;19.35;;;13.20;99.90;;;12.13;100.00;96938.91;5023642;28;20441;-77
2022/09/25 08:23:48;;;;;;;53.95;21.20;;;13.00;99.90;;;12.20;100.00;96945.53;5030590;28;20395;-75
2022/09/25 08:26:15;;;;;;;54.10;20.40;;;13.00;99.90;;;12.19;100.00;96943.94;5033011;28;20403;-76
2022/09/25 08:28:41;;;;;;;56.38;19.95;;;13.00;99.90;;;12.25;100.00;96948.19;5031057;28;20481;-75
2022/09/25 08:31:07;;;;;;;66.80;23.03;;;13.10;99.90;;;12.33;100.00;96952.88;5032541;28;20991;-77
2022/09/25 08:33:33;;;;;;;56.80;20.95;;;13.20;99.90;;;12.34;100.00;96943.88;5032673;28;20403;-79
2022/09/25 08:36:02;;;;;;;57.55;22.08;;;13.20;99.90;;;12.32;100.00;96939.91;5028382;28;20977;-76
2022/09/25 08:38:28;;;;;;;58.90;21.00;;;13.20;99.90;;;12.31;100.00;96940.97;5023137;28;20570;-76
2022/09/25 08:40:59;;;;;;;58.25;21.25;;;13.10;99.90;;;12.34;100.00;96937.75;5028503;28;20419;-76
2022/09/25 08:43:29;;;;;;;66.03;21.75;;;13.20;99.90;;;12.37;100.00;96940.69;5030233;28;20426;-76
2022/09/25 08:49:01;;;;;;;63.28;21.58;;;13.20;99.90;;;12.45;100.00;96936.66;5026310;28;20430;-75
2022/09/25 08:51:28;;;;;;;60.92;20.80;;;13.30;99.90;;;12.47;100.00;96933.75;5026329;28;20486;-75
2022/09/25 08:53:54;;;;;;;47.60;19.35;;;13.30;99.90;;;12.64;100.00;96934.16;5029178;28;20419;-76
2022/09/25 08:56:20;;;;;;;49.35;19.33;;;13.40;99.90;;;12.71;100.00;96924.81;5027915;28;20765;-76
2022/09/25 08:58:53;;;;;;;47.47;17.53;;;13.50;99.90;;;12.75;100.00;96928.53;5025470;28;20509;-75
2022/09/25 09:01:23;;;;;;;47.08;18.55;;;13.60;99.90;;;12.73;100.00;96924.53;5026037;28;20411;-72
2022/09/25 09:03:57;;;;;;;37.72;18.25;;;13.60;99.90;;;12.63;100.00;96928.03;5030303;28;20384;-73
2022/09/25 09:06:26;;;;;;;44.67;18.48;;;13.40;99.90;;;12.67;100.00;96920.34;5029893;28;20419;-72
2022/09/25 09:09:00;;;;;;;51.25;18.67;;;13.50;99.90;;;12.87;100.00;96922.06;5031671;28;20486;-74
2022/09/25 09:11:32;;;;;;;39.57;17.53;;;13.60;99.90;;;13.04;100.00;96930.44;5026011;28;20469;-74
2022/09/25 09:14:03;;;;;;;44.38;18.20;;;13.80;99.90;;;12.98;100.00;96935.00;5031818;28;20433;-74
2022/09/25 09:16:37;;;;;;;46.73;17.53;;;13.80;99.90;;;13.14;100.00;96933.84;5047359;23;20523;-76
2022/09/25 09:19:05;;;;;;;35.35;16.58;;;13.90;99.90;;;13.15;100.00;96932.78;5007979;28;20431;-74
2022/09/25 09:21:35;;;;;;;43.03;16.80;;;13.90;99.90;;;13.15;100.00;96926.66;5007442;28;20412;-73
2022/09/25 09:24:12;;;;;;;47.90;17.27;;;14.00;99.90;;;13.18;100.00;96928.75;5011591;28;20401;-72
2022/09/25 09:27:19;;;;;;;27.70;14.00;;;14.00;99.90;;;13.25;100.00;96920.47;5011161;28;20401;-75
2022/09/25 09:30:14;;;;;;;27.15;14.00;;;14.00;99.90;;;13.26;100.00;96922.03;4992465;28;20421;-74
2022/09/25 09:33:14;;;;;;;38.75;16.27;;;14.00;99.90;;;13.16;100.00;96921.06;4996732;28;20452;-76
2022/09/25 09:35:53;;;;;;;37.75;16.17;;;14.00;99.90;;;13.12;100.00;96921.88;5004954;28;20462;-75
2022/09/25 09:38:31;;;;;;;29.38;14.25;;;14.00;99.90;;;13.03;100.00;96928.84;5001958;28;20444;-76
2022/09/25 09:41:13;;;;;;;41.17;16.10;;;13.80;99.90;;;12.96;100.00;96920.41;5010267;28;20432;-74
2022/09/25 09:44:00;;;;;;;44.95;16.88;;;13.80;99.90;;;12.96;100.00;96926.50;5008734;28;20408;-74
2022/09/25 09:46:40;;;;;;;51.53;18.88;;;13.80;99.90;;;12.96;100.00;96923.84;5000094;28;20396;-75
2022/09/25 09:49:15;;;;;;;37.30;15.73;;;13.80;99.90;;;13.00;100.00;96924.09;5000058;28;20403;-75
2022/09/25 09:51:53;;;;;;;46.97;18.08;;;13.80;99.90;;;12.97;100.00;96919.34;5003054;28;20416;-74
2022/09/25 09:54:23;;;;;;;45.28;18.25;;;13.80;99.90;;;12.98;100.00;96919.06;4984477;28;20410;-74
2022/09/25 09:56:51;;;;;;;45.47;18.15;;;13.80;99.90;;;13.00;100.00;96922.25;5002812;28;20401;-74
2022/09/25 09:59:22;;;;;;;41.35;17.00;;;13.80;99.90;;;13.04;100.00;96925.91;5005548;28;20450;-74
2022/09/25 10:01:59;;;;;;;36.53;16.02;;;13.80;99.90;;;13.12;100.00;96930.63;5008421;28;20417;-74
2022/09/25 10:04:30;;;;;;;38.33;16.77;;;13.90;99.90;;;13.14;100.00;96933.84;5004814;28;20440;-74
2022/09/25 10:07:03;;;;;;;32.78;16.33;;;14.00;99.90;;;13.21;100.00;96919.44;5008780;28;20409;-74
2022/09/25 10:09:29;;;;;;;40.28;17.00;;;14.00;99.90;;;13.26;100.00;96922.03;5007906;28;20416;-75
2022/09/25 10:12:02;;;;;;;32.58;16.15;;;14.00;99.90;;;13.37;100.00;96911.06;5012187;28;20437;-75
2022/09/25 10:14:35;;;;;;;29.63;14.98;;;14.10;99.90;;;13.50;100.00;96915.72;5012119;28;20458;-74
2022/09/25 10:17:05;;;;;;;33.40;14.98;;;14.20;99.90;;;13.59;100.00;96907.13;5012856;28;20782;-74
2022/09/25 10:19:42;;;;;;;29.83;14.40;;;14.30;99.90;;;13.50;100.00;96907.75;5007962;28;20507;-74